Latest Weather Observations for Dalby

IDQ60801

Issued at 11:02 pm EST Wednesday 1 April 2015 (issued every 30 minutes, with the page automatically refreshed every 10 minutes)

About weather observations | Map of weather stations | Latest weather observations for QLD | Other Formats
Station Details ID: 041522 Name: DALBY AIRPORT Lat: -27.16 Lon: 151.26 Height: 343.9 m
Data from the previous 72 hours. | See also: Recent months at Dalby
Date/Time
EST
Temp
°C
App
Temp
°C
Dew
Point
Rel
Hum
%
Delta-T
°C
Wind Press
QNH
hPa
Press
MSL
hPa
Rain
since 9 am
mm
Dir
 
Spd
km/h
Gust
km/h
Spd
kts
Gust
kts
01/11:00pm 19.4 18.0 15.5 78 2.3 SE 17 24 9 13 1020.8 1019.6 0.0
01/10:30pm 20.0 19.3 15.4 75 2.8 SE 13 17 7 9 1021.0 1019.7 0.0
01/10:00pm 20.2 19.4 15.0 72 3.1 ESE 13 17 7 9 1021.1 1019.8 0.0
01/09:30pm 20.2 18.6 15.0 72 3.1 ESE 17 20 9 11 1021.1 1019.8 0.0
01/09:00pm 20.3 18.5 14.4 69 3.5 ESE 17 20 9 11 1021.1 1019.8 0.0
01/08:30pm 20.8 18.6 14.9 69 3.5 ESE 20 28 11 15 1020.7 1019.5 0.0
01/08:00pm 21.0 19.3 14.6 67 3.8 ESE 17 28 9 15 1020.2 1019.0 0.0
01/07:30pm 20.4 18.9 14.1 67 3.7 ESE 15 17 8 9 1020.2 1019.0 0.0
01/07:00pm 21.0 18.5 14.2 65 4.0 E 20 24 11 13 1020.0 1018.8 0.0
01/06:30pm 21.3 18.8 14.0 63 4.3 E 20 28 11 15 1019.5 1018.3 0.0
01/06:00pm 22.0 19.3 13.6 59 4.9 E 20 26 11 14 1019.4 1018.2 0.0
01/05:30pm 22.3 19.2 13.4 57 5.2 E 22 28 12 15 1019.1 1017.9 0.0
01/05:00pm 22.5 18.1 13.0 55 5.5 E 28 35 15 19 1018.8 1017.5 0.0
01/04:30pm 23.1 18.2 12.4 51 6.2 E 30 35 16 19 1018.7 1017.4 0.0
01/04:00pm 23.1 17.7 12.7 52 6.0 E 33 41 18 22 1018.7 1017.4 0.0
01/03:30pm 22.5 19.2 14.1 59 5.0 E 24 32 13 17 1018.8 1017.5 0.0
01/03:00pm 22.4 17.7 14.3 60 4.8 E 32 43 17 23 1019.0 1017.8 0.0
01/02:30pm 23.2 18.6 15.0 60 5.0 E 33 43 18 23 1019.2 1018.0 0.0
01/02:00pm 25.4 19.1 14.5 51 6.6 E 41 52 22 28 1019.2 1018.0 0.0
01/01:30pm 25.1 18.3 13.0 47 7.1 E 41 54 22 29 1019.1 1017.9 0.0
01/01:00pm 25.7 19.3 13.2 46 7.4 E 39 56 21 30 1019.3 1018.1 0.0
01/12:30pm 25.6 19.9 13.1 46 7.4 ENE 35 48 19 26 1019.6 1018.4 0.0
01/12:00pm 25.4 19.1 13.6 48 7.0 ENE 39 54 21 29 1020.1 1018.9 0.0
01/11:30am 24.9 18.9 14.4 52 6.3 E 39 46 21 25 1020.8 1019.6 0.0
01/11:00am 25.2 18.6 14.9 52 6.2 E 43 57 23 31 1021.4 1020.1 0.0
01/10:30am 23.0 18.0 15.1 61 4.8 E 35 50 19 27 1021.8 1020.6 0.0
01/10:00am 21.8 17.5 15.9 69 3.6 E 33 43 18 23 1022.2 1021.0 0.0
01/09:30am 21.4 17.8 15.3 68 3.7 E 28 35 15 19 1022.5 1020.8 0.0
01/09:00am 20.8 17.3 15.4 71 3.2 ESE 28 35 15 19 1022.5 1020.8 0.0
01/08:30am 20.5 16.6 15.5 73 3.0 ESE 30 35 16 19 1022.3 1020.6 0.0
01/08:00am 20.2 17.5 15.6 75 2.8 ESE 24 32 13 17 1022.0 1020.3 0.0
01/07:30am 19.4 17.0 15.5 78 2.3 ESE 22 30 12 16 1021.7 1020.0 0.0
01/07:00am 18.3 16.9 15.6 84 1.6 SE 17 20 9 11 1021.5 1019.8 0.0
01/06:30am 17.0 15.6 14.6 86 1.4 SSE 15 19 8 10 1021.1 1019.3 0.0
01/06:00am 16.4 14.9 14.1 86 1.3 SSE 15 19 8 10 1020.8 1019.1 0.0
01/05:30am 16.5 15.4 14.3 87 1.3 SSE 13 17 7 9 1020.4 1018.7 0.0
01/05:00am 16.4 15.3 14.4 88 1.2 SSE 13 17 7 9 1020.2 1018.5 0.0
01/04:30am 16.4 15.7 14.4 88 1.2 SSE 11 15 6 8 1020.1 1018.4 0.0
01/04:00am 16.1 15.3 13.9 87 1.3 SE 11 13 6 7 1020.2 1018.5 0.0
01/03:30am 16.6 15.1 14.2 86 1.4 ESE 15 19 8 10 1020.0 1018.3 0.0
01/03:00am 16.9 15.5 14.4 85 1.5 SE 15 17 8 9 1020.0 1018.3 0.0
01/02:30am 17.1 15.4 14.6 85 1.5 SE 17 22 9 12 1020.4 1018.7 0.0
01/02:00am 17.1 15.7 14.6 85 1.5 SE 15 19 8 10 1021.0 1019.2 0.0
01/01:30am 16.9 16.3 14.5 86 1.4 SE 11 15 6 8 1021.1 1019.3 0.0
01/01:00am 16.9 16.2 14.2 84 1.6 ESE 11 13 6 7 1021.5 1019.8 0.0
 
Date/Time
EST
Temp
°C
App
Temp
°C
Dew
Point
Rel
Hum
%
Delta-T
°C
Wind Press
QNH
hPa
Press
MSL
hPa
Rain
since 9 am
mm
Dir
 
Spd
km/h
Gust
km/h
Spd
kts
Gust
kts
31/11:30pm 17.9 16.5 14.6 81 1.9 ESE 15 17 8 9 1022.1 1020.4 0.0
31/11:00pm 18.2 17.2 14.5 79 2.2 ESE 13 17 7 9 1022.4 1020.7 0.0
31/10:30pm 18.5 17.4 14.4 77 2.4 E 13 17 7 9 1022.4 1020.7 0.0
31/10:00pm 18.9 17.2 14.6 76 2.5 E 17 20 9 11 1022.4 1020.7 0.0
31/09:30pm 19.3 17.8 14.3 73 2.9 E 15 20 8 11 1022.6 1020.9 0.0
31/09:00pm 19.8 17.6 14.4 71 3.2 E 19 24 10 13 1022.4 1020.7 0.0
31/08:30pm 20.2 17.4 14.3 69 3.5 E 22 28 12 15 1022.3 1020.6 0.0
31/08:00pm 20.6 18.2 14.3 67 3.7 E 20 28 11 15 1022.1 1020.4 0.0
31/07:30pm 21.0 18.6 14.4 66 3.9 E 20 24 11 13 1021.8 1020.1 0.0
31/07:00pm 21.9 18.4 14.5 63 4.4 E 26 32 14 17 1021.4 1019.7 0.0
31/06:30pm 22.7 20.4 12.9 54 5.7 E 17 20 9 11 1020.8 1019.1 0.0
31/06:00pm 23.3 20.8 12.3 50 6.3 ENE 17 24 9 13 1020.4 1018.7 0.0
31/05:30pm 24.0 20.9 12.3 48 6.8 ENE 20 28 11 15 1020.1 1018.4 0.0
31/05:00pm 24.7 20.9 12.3 46 7.2 ENE 24 32 13 17 1019.7 1018.0 0.0
31/04:30pm 25.3 21.2 11.5 42 7.9 ENE 24 33 13 18 1019.6 1017.9 0.0
31/04:00pm 25.5 21.5 11.7 42 8.0 ENE 24 32 13 17 1019.4 1017.7 0.0
31/03:30pm 25.6 21.7 12.1 43 7.9 ENE 24 32 13 17 1019.7 1018.0 0.0
31/03:00pm 26.4 23.3 11.7 40 8.5 E 19 24 10 13 1019.8 1018.1 0.0
31/02:30pm 26.9 23.7 11.4 38 9.0 ENE 19 24 10 13 1020.0 1018.3 0.0
31/02:00pm 26.7 22.8 10.8 37 9.1 E 22 35 12 19 1020.1 1018.4 0.0
31/01:30pm 27.0 22.8 9.8 34 9.7 E 22 32 12 17 1020.4 1018.7 0.0
31/01:00pm 27.9 24.4 11.0 35 9.7 ENE 20 33 11 18 1020.7 1019.0 0.0
31/12:30pm 26.7 23.2 10.8 37 9.1 E 20 33 11 18 1021.2 1019.4 0.0
31/12:00pm 27.0 23.4 11.9 39 8.8 ENE 22 32 12 17 1021.7 1020.0 0.0
31/11:30am 26.6 23.9 13.0 43 8.1 ENE 19 32 10 17 1022.7 1021.0 0.0
31/11:00am 25.8 23.0 13.3 46 7.4 E 20 26 11 14 1022.8 1021.1 0.0
31/10:30am 24.7 21.2 13.3 49 6.7 ENE 24 35 13 19 1022.8 1021.1 0.0
31/10:00am 24.5 20.7 13.7 51 6.4 ENE 26 33 14 18 1023.3 1021.6 0.0
31/09:30am 23.9 19.7 13.4 51 6.2 ENE 28 37 15 20 1023.2 1021.5 0.0
31/09:00am 23.5 20.4 14.5 57 5.4 ENE 24 33 13 18 1023.3 1021.6 0.0
31/08:30am 22.2 19.4 15.3 65 4.2 E 24 30 13 16 1023.1 1021.4 0.0
31/08:00am 20.8 18.4 15.4 71 3.2 E 22 30 12 16 1023.0 1021.3 0.0
31/07:30am 20.2 18.2 15.4 74 2.9 E 20 26 11 14 1022.5 1020.8 0.0
31/07:00am 19.7 18.6 15.4 76 2.6 E 15 22 8 12 1022.3 1020.6 0.0
31/06:30am 19.3 17.8 15.2 77 2.4 ESE 17 22 9 12 1021.9 1020.2 0.0
31/06:00am 19.2 18.0 15.1 77 2.4 ESE 15 20 8 11 1021.7 1020.0 0.0
31/05:30am 19.3 18.5 15.0 76 2.6 ESE 13 15 7 8 1021.5 1019.8 0.0
31/05:00am 19.3 18.5 15.0 76 2.5 E 13 17 7 9 1021.1 1019.3 0.0
31/04:30am 19.4 17.3 15.1 76 2.6 ENE 20 28 11 15 1020.7 1019.0 0.0
31/04:00am 19.5 18.0 15.2 76 2.6 E 17 22 9 12 1021.0 1019.2 0.0
31/03:30am 19.6 18.4 15.0 75 2.7 ESE 15 19 8 10 1021.0 1019.2 0.0
31/03:00am 19.7 18.9 15.1 75 2.7 ESE 13 17 7 9 1021.2 1019.4 0.0
31/02:30am 19.6 19.1 15.0 75 2.7 E 11 15 6 8 1021.6 1019.9 0.0
31/02:00am 19.9 18.3 15.1 74 2.9 E 17 22 9 12 1021.6 1019.9 0.0
31/01:30am 20.2 18.3 15.2 73 3.0 E 19 26 10 14 1022.0 1020.3 0.0
31/01:00am 20.5 18.0 15.1 71 3.2 E 22 30 12 16 1022.1 1020.4 0.0
31/12:30am 20.6 18.3 14.7 69 3.5 E 20 26 11 14 1022.4 1020.7 0.0
31/12:00am 20.8 18.3 14.2 66 3.9 E 20 26 11 14 1022.7 1021.0 0.0
 
Date/Time
EST
Temp
°C
App
Temp
°C
Dew
Point
Rel
Hum
%
Delta-T
°C
Wind Press
QNH
hPa
Press
MSL
hPa
Rain
since 9 am
mm
Dir
 
Spd
km/h
Gust
km/h
Spd
kts
Gust
kts
30/11:30pm 20.9 18.7 14.3 66 3.9 E 19 22 10 12 1022.7 1021.0 0.0
30/11:00pm 21.0 18.8 14.4 66 3.9 E 19 22 10 12 1022.9 1021.2 0.0
30/10:30pm 21.2 18.7 14.1 64 4.2 E 20 24 11 13 1022.9 1021.2 0.0
30/10:00pm 21.5 18.7 14.4 64 4.2 E 22 30 12 16 1022.9 1021.2 0.0
30/09:30pm 21.9 19.9 15.5 67 3.9 E 20 26 11 14 1023.1 1021.4 0.0
30/09:00pm 22.2 19.8 15.5 66 4.1 E 22 28 12 15 1023.0 1021.3 0.0
30/08:30pm 22.7 20.3 15.3 63 4.5 E 22 28 12 15 1023.0 1021.3 0.0
30/08:00pm 23.0 20.4 14.8 60 4.9 E 22 28 12 15 1022.7 1021.0 0.0
30/07:30pm 23.3 20.9 14.3 57 5.4 E 20 26 11 14 1022.3 1020.6 0.0
30/07:00pm 23.4 21.3 13.6 54 5.8 E 17 20 9 11 1022.0 1020.3 0.0
30/06:30pm 23.8 21.6 13.4 52 6.1 ESE 17 20 9 11 1021.7 1020.0 0.0
30/06:00pm 24.7 21.7 12.6 47 7.1 ESE 20 24 11 13 1021.4 1019.7 0.0
30/05:30pm 25.6 22.1 12.1 43 7.9 E 22 26 12 14 1021.1 1019.3 0.0
30/05:00pm 26.2 23.0 11.9 41 8.3 ESE 20 28 11 15 1021.0 1019.2 0.0
30/04:30pm 26.4 22.8 11.7 40 8.5 ESE 22 28 12 15 1020.7 1019.0 0.0
30/04:00pm 26.9 23.7 11.4 38 8.9 ENE 19 26 10 14 1020.4 1018.7 0.0
30/03:30pm 27.1 24.5 12.0 39 8.8 ENE 17 26 9 14 1020.6 1018.9 0.0
30/03:00pm 26.9 23.7 11.8 39 8.8 E 20 28 11 15 1020.4 1018.7 0.0
30/02:30pm 27.2 23.9 11.7 38 9.0 E 20 28 11 15 1020.6 1018.9 0.0
30/02:00pm 26.3 23.3 12.4 42 8.1 ENE 20 30 11 16 1021.0 1019.2 0.0
30/01:30pm 26.4 23.6 13.2 44 7.8 E 20 32 11 17 1021.2 1019.4 0.0
30/01:00pm 25.7 22.7 12.5 44 7.7 E 20 32 11 17 1021.6 1019.9 0.0
30/12:30pm 26.5 23.6 12.9 43 8.1 NE 20 28 11 15 1022.1 1020.4 0.0
30/12:00pm 26.3 24.4 13.1 44 7.8 NE 15 24 8 13 1022.5 1020.8 0.0
30/11:30am 27.0 23.5 13.4 43 8.1 E 24 33 13 18 1022.8 1021.1 0.0
30/11:00am 26.9 23.6 12.9 42 8.3 ENE 22 33 12 18 1023.4 1021.7 0.0
30/10:30am 26.7 22.7 13.1 43 8.1 NE 26 37 14 20 1023.6 1021.9 0.0
30/10:00am 24.5 20.3 13.4 50 6.5 NE 28 37 15 20 1024.1 1022.4 0.0
30/09:30am 23.5 19.9 14.2 56 5.6 ENE 26 35 14 19 1024.1 1022.4 0.0
30/09:00am 23.3 18.9 14.0 56 5.5 ENE 30 35 16 19 1024.1 1022.4 0.0
30/08:30am 22.8 21.2 16.1 66 4.1 ESE 19 26 10 14 1024.4 1022.7 0.0
30/08:00am 20.2 19.7 16.0 77 2.5 ESE 13 17 7 9 1024.2 1022.5 0.0
30/07:30am 19.1 20.2 15.6 80 2.1 NNE 4 9 2 5 1024.1 1022.4 0.0
30/07:00am 18.7 18.0 15.4 81 2.0 E 13 15 7 8 1023.1 1021.4 0.0
30/06:30am 18.4 16.9 15.3 82 1.8 ESE 17 19 9 10 1022.4 1020.7 0.0
30/06:00am 18.0 17.7 15.4 85 1.5 ESE 11 17 6 9 1022.7 1021.0 0.0
30/05:30am 16.9 15.8 14.4 85 1.5 SE 13 15 7 8 1022.2 1020.5 0.0
30/05:00am 16.9 16.0 13.8 82 1.8 E 11 13 6 7 1021.7 1020.0 0.0
30/04:30am 16.9 16.0 13.8 82 1.8 ESE 11 13 6 7 1021.5 1019.8 0.0
30/04:00am 17.0 16.8 13.5 80 2.0 ESE 7 9 4 5 1021.3 1019.5 0.0
30/03:30am 16.9 16.2 13.2 79 2.1 SE 9 11 5 6 1021.2 1019.4 0.0
30/03:00am 17.3 16.5 13.0 76 2.4 SE 9 11 5 6 1021.2 1019.4 0.0
30/02:30am 17.8 17.0 12.9 73 2.8 ESE 9 11 5 6 1021.3 1019.5 0.0
30/02:00am 18.2 18.9 13.3 73 2.8 NE 2 7 1 4 1021.6 1019.9 0.0
30/01:30am 18.6 18.0 13.5 72 2.9 E 9 11 5 6 1021.9 1020.2 0.0
30/01:00am 19.1 18.2 13.7 71 3.1 NE 11 13 6 7 1022.2 1020.5 0.0
30/12:30am 19.5 18.4 14.3 72 3.1 E 13 15 7 8 1022.3 1020.6 0.0
30/12:00am 19.6 18.3 14.8 74 2.8 E 15 17 8 9 1022.3 1020.6 0.0
 
Date/Time
EST
Temp
°C
App
Temp
°C
Dew
Point
Rel
Hum
%
Delta-T
°C
Wind Press
QNH
hPa
Press
MSL
hPa
Rain
since 9 am
mm
Dir
 
Spd
km/h
Gust
km/h
Spd
kts
Gust
kts
29/11:30pm 20.3 18.7 15.1 72 3.1 E 17 22 9 12 1022.4 1020.7 0.0

Other Formats:

Comma delimited format used in spreadsheet applications
http://www.bom.gov.au/fwo/IDQ60801/IDQ60801.94542.axf

JavaScript Object Notation format (JSON) in row-major order
http://www.bom.gov.au/fwo/IDQ60801/IDQ60801.94542.json